Time;durP1;ratioP1;P1;durP2;ratioP2;P2;SDS_P1;SDS_P2;PMS_P1;PMS_P2;Temp;Humidity;BMP_temperature;BMP_pressure;BME280_temperature;BME280_humidity;BME280_pressure;Samples;Min_cycle;Max_cycle;Signal;HPM_P1;HPM_P2
2023/04/04 00:00:04;;;;;;;1.50;1.20;;;;;;;21.90;17.80;101892.03;4533915;28;20040;-56
2023/04/04 00:02:14;;;;;;;1.48;1.10;;;;;;;21.91;18.05;101901.50;4529742;28;21196;-57
2023/04/04 00:04:26;;;;;;;1.20;1.02;;;;;;;21.91;17.67;101907.25;4528458;28;20041;-57
2023/04/04 00:06:37;;;;;;;1.17;1.08;;;;;;;21.89;17.73;101898.13;4530649;28;20137;-57
2023/04/04 00:08:47;;;;;;;1.20;1.10;;;;;;;21.86;17.95;101891.03;4518827;28;20043;-58
2023/04/04 00:10:59;;;;;;;1.35;1.00;;;;;;;21.79;18.06;101884.97;4512331;28;20135;-57
2023/04/04 00:13:10;;;;;;;1.60;0.90;;;;;;;21.86;18.11;101888.16;4528286;28;20041;-57
2023/04/04 00:15:20;;;;;;;1.05;0.95;;;;;;;21.88;17.92;101894.41;4529170;28;20022;-58
2023/04/04 00:17:31;;;;;;;1.23;1.00;;;;;;;21.89;17.80;101896.09;4513856;28;20032;-58
2023/04/04 00:19:41;;;;;;;1.20;1.05;;;;;;;21.89;18.14;101898.97;4528403;28;20207;-58
2023/04/04 00:21:52;;;;;;;1.13;1.00;;;;;;;21.88;17.90;101891.53;4530239;28;20033;-58
2023/04/04 00:24:02;;;;;;;1.13;1.00;;;;;;;21.90;18.15;101897.78;4514430;28;20052;-57
2023/04/04 00:26:13;;;;;;;1.10;1.00;;;;;;;21.89;17.67;101898.13;4528478;28;20057;-58
2023/04/04 00:28:24;;;;;;;1.33;1.10;;;;;;;21.87;17.85;101884.09;4511882;28;20040;-58
2023/04/04 00:30:35;;;;;;;1.20;1.10;;;;;;;21.87;17.95;101901.34;4528836;28;20096;-57
2023/04/04 00:32:46;;;;;;;1.90;0.95;;;;;;;21.81;17.97;101873.13;4518400;28;20072;-57
2023/04/04 00:34:56;;;;;;;1.33;1.10;;;;;;;21.84;18.06;101883.94;4529055;28;20819;-58
2023/04/04 00:37:10;;;;;;;1.38;1.20;;;;;;;21.87;18.10;101892.72;4528801;28;20069;-57
2023/04/04 00:39:22;;;;;;;1.15;0.95;;;;;;;21.87;18.70;101891.88;4531820;28;20025;-58
2023/04/04 00:41:33;;;;;;;1.13;1.00;;;;;;;21.88;18.73;101896.44;4527802;28;20123;-58
2023/04/04 00:43:44;;;;;;;0.82;0.82;;;;;;;21.85;19.08;101903.72;4529559;28;20037;-58
2023/04/04 00:45:55;;;;;;;1.00;1.00;;;;;;;21.86;19.06;101899.66;4510177;28;20038;-57
2023/04/04 00:48:05;;;;;;;1.27;1.17;;;;;;;21.85;19.10;101892.22;4512261;28;20017;-58
2023/04/04 00:50:16;;;;;;;1.10;1.00;;;;;;;21.85;19.09;101892.22;4518382;28;20045;-57
2023/04/04 00:52:27;;;;;;;1.10;1.00;;;;;;;21.85;18.87;101886.47;4528041;28;20033;-58
2023/04/04 00:54:37;;;;;;;1.45;1.17;;;;;;;21.82;19.02;101890.03;4528210;28;20044;-57
2023/04/04 00:56:53;;;;;;;1.38;1.10;;;;;;;21.86;18.40;101899.66;4527691;28;20075;-57
2023/04/04 00:59:05;;;;;;;1.27;1.00;;;;;;;21.81;18.67;101891.22;4529270;28;20682;-57
2023/04/04 01:01:16;;;;;;;1.40;1.27;;;;;;;21.85;18.63;101892.22;4529119;28;20029;-57
2023/04/04 01:03:26;;;;;;;1.15;1.05;;;;;;;21.83;18.45;101888.88;4531237;28;20037;-57
2023/04/04 01:05:38;;;;;;;1.42;1.20;;;;;;;21.83;18.33;101891.75;4519323;28;20945;-57
2023/04/04 01:07:48;;;;;;;1.20;1.10;;;;;;;21.82;18.70;101889.19;4513265;28;20037;-57
2023/04/04 01:10:01;;;;;;;1.00;0.90;;;;;;;21.81;18.73;101879.75;4532876;28;20025;-57
2023/04/04 01:12:12;;;;;;;1.33;1.00;;;;;;;21.80;18.21;101882.97;4513486;28;20082;-57
2023/04/04 01:14:22;;;;;;;1.20;1.10;;;;;;;21.79;18.78;101881.25;4530054;28;20029;-58
2023/04/04 01:16:34;;;;;;;1.30;1.20;;;;;;;21.82;18.59;101884.28;4515396;28;20040;-57
2023/04/04 01:18:47;;;;;;;0.93;0.90;;;;;;;21.78;18.58;101873.81;4535025;28;20985;-57
2023/04/04 01:21:01;;;;;;;1.42;1.23;;;;;;;21.79;18.68;101876.34;4532784;28;20028;-57
2023/04/04 01:23:13;;;;;;;1.20;1.10;;;;;;;21.80;18.68;101888.69;4522968;28;20033;-57
2023/04/04 01:25:30;;;;;;;1.20;1.10;;;;;;;21.80;19.04;101877.22;4529978;28;20025;-57
2023/04/04 01:27:45;;;;;;;1.17;1.08;;;;;;;21.80;18.71;101883.78;4517354;28;20042;-57
2023/04/04 01:29:59;;;;;;;1.15;1.05;;;;;;;21.79;18.52;101882.09;4514565;28;20575;-57
2023/04/04 01:32:18;;;;;;;1.10;1.00;;;;;;;21.80;18.89;101880.91;4531963;28;20045;-57
2023/04/04 01:34:42;;;;;;;1.20;1.10;;;;;;;21.80;18.68;101882.97;4530358;28;20076;-57
2023/04/04 01:37:22;;;;;;;1.40;1.20;;;;;;;21.79;18.35;101884.97;4529968;28;20063;-57
2023/04/04 01:39:45;;;;;;;0.90;0.90;;;;;;;21.78;18.39;101874.69;4514241;28;20048;-57
2023/04/04 01:41:58;;;;;;;1.10;1.00;;;;;;;21.78;18.77;101873.81;4532062;28;20150;-57
2023/04/04 01:44:10;;;;;;;1.25;0.90;;;;;;;21.74;18.89;101867.06;4537485;28;20041;-57
2023/04/04 01:46:21;;;;;;;0.90;0.90;;;;;;;21.78;18.77;101868.06;4518100;28;20149;-57
2023/04/04 01:48:33;;;;;;;1.50;1.20;;;;;;;21.76;19.06;101873.31;4533749;28;20111;-58
2023/04/04 01:50:47;;;;;;;1.23;1.10;;;;;;;21.73;19.07;101863.34;4534979;28;20616;-57
2023/04/04 01:52:58;;;;;;;1.10;1.00;;;;;;;21.70;19.26;101860.31;4535927;28;20041;-57
2023/04/04 01:55:09;;;;;;;1.10;1.00;;;;;;;21.74;18.94;101856.38;4535114;28;20032;-57
2023/04/04 01:57:20;;;;;;;1.15;1.00;;;;;;;21.76;18.92;101858.94;4533743;28;20317;-57
2023/04/04 01:59:31;;;;;;;1.23;1.08;;;;;;;21.65;19.13;101843.25;4520100;28;20909;-57
2023/04/04 02:01:42;;;;;;;0.85;0.85;;;;;;;21.76;18.88;101856.94;4503398;28;20041;-58
2023/04/04 02:03:53;;;;;;;1.10;1.00;;;;;;;21.66;18.92;101837.16;4535884;28;20665;-57
2023/04/04 02:06:04;;;;;;;1.83;1.08;;;;;;;21.70;18.72;101843.06;4535855;28;20030;-58
2023/04/04 02:08:15;;;;;;;1.10;0.90;;;;;;;21.73;18.71;101848.97;4535092;28;20029;-57
2023/04/04 02:10:33;;;;;;;1.27;1.17;;;;;;;21.74;18.74;101856.38;4508045;28;20081;-57
2023/04/04 02:12:44;;;;;;;0.85;0.82;;;;;;;21.74;18.49;101849.81;4533804;28;20127;-58
2023/04/04 02:14:55;;;;;;;1.15;0.90;;;;;;;21.61;18.28;101828.72;4534869;28;20588;-57
2023/04/04 02:17:05;;;;;;;0.85;0.85;;;;;;;21.72;18.35;101847.25;4535341;28;20598;-57
2023/04/04 02:19:16;;;;;;;1.20;0.90;;;;;;;21.70;18.20;101843.91;4532673;28;20033;-57
2023/04/04 02:21:26;;;;;;;1.33;0.98;;;;;;;21.73;18.30;101853.88;4535527;28;20039;-57
2023/04/04 02:23:38;;;;;;;1.25;0.95;;;;;;;21.72;18.25;101849.31;4535803;28;20532;-57
2023/04/04 02:25:51;;;;;;;1.30;1.00;;;;;;;21.72;18.35;101843.56;4533451;28;20137;-57
2023/04/04 02:28:02;;;;;;;1.63;1.00;;;;;;;21.71;17.88;101851.34;4535470;28;20091;-57
2023/04/04 02:30:13;;;;;;;0.85;0.80;;;;;;;21.72;18.03;101853.00;4534617;28;20068;-57
2023/04/04 02:32:23;;;;;;;1.00;0.90;;;;;;;21.68;18.09;101840.53;4535240;28;20617;-58
2023/04/04 02:34:36;;;;;;;1.17;1.08;;;;;;;21.70;18.12;101848.81;4518809;28;20084;-57
2023/04/04 02:36:47;;;;;;;1.13;0.95;;;;;;;21.66;18.48;101831.41;4518409;28;20132;-57
2023/04/04 02:38:59;;;;;;;1.17;1.00;;;;;;;21.68;18.43;101840.53;4533577;28;20052;-57
2023/04/04 02:41:10;;;;;;;1.05;1.00;;;;;;;21.71;18.17;101836.97;4533638;28;20045;-58
2023/04/04 02:43:20;;;;;;;1.70;1.30;;;;;;;21.71;18.34;101844.72;4533715;28;20029;-58
2023/04/04 02:45:32;;;;;;;1.10;1.00;;;;;;;21.70;18.15;101841.03;4533205;28;20064;-57
2023/04/04 02:47:51;;;;;;;1.40;0.98;;;;;;;21.70;18.58;101843.91;4519413;28;20036;-58
2023/04/04 02:50:06;;;;;;;0.93;0.93;;;;;;;21.69;18.17;101836.47;4515965;28;20041;-59
2023/04/04 02:52:17;;;;;;;1.20;1.00;;;;;;;21.71;18.45;101844.72;4517680;28;20033;-57
2023/04/04 02:54:30;;;;;;;1.20;1.00;;;;;;;21.69;18.41;101836.47;4530463;28;20033;-57
2023/04/04 02:56:41;;;;;;;1.13;1.00;;;;;;;21.70;18.00;101841.03;4518405;28;21002;-57
2023/04/04 02:58:52;;;;;;;1.20;1.10;;;;;;;21.67;18.11;101826.50;4531349;28;20057;-58
2023/04/04 03:01:02;;;;;;;1.27;1.15;;;;;;;21.67;18.57;101833.13;4536394;28;20478;-57
2023/04/04 03:03:17;;;;;;;0.80;0.80;;;;;;;21.69;18.73;101841.38;4517566;28;20075;-59
2023/04/04 03:05:30;;;;;;;1.00;0.90;;;;;;;21.54;18.81;101813.22;4537381;28;20124;-57
2023/04/04 03:07:41;;;;;;;1.40;1.00;;;;;;;21.68;18.29;101833.94;4517216;28;20052;-57
2023/04/04 03:09:52;;;;;;;1.10;1.00;;;;;;;21.67;18.56;101841.72;4517494;28;20037;-58
2023/04/04 03:12:03;;;;;;;1.02;0.90;;;;;;;21.65;18.18;101841.22;4534736;28;20044;-58
2023/04/04 03:14:13;;;;;;;1.08;0.98;;;;;;;21.64;18.54;101839.56;4533890;28;20037;-58
2023/04/04 03:16:24;;;;;;;1.27;1.00;;;;;;;21.64;18.40;101833.81;4533427;28;20041;-57
2023/04/04 03:18:36;;;;;;;1.02;0.90;;;;;;;21.67;18.78;101838.88;4534409;28;20033;-57
2023/04/04 03:20:47;;;;;;;1.20;1.10;;;;;;;21.67;18.39;101832.25;4516559;28;20035;-57
2023/04/04 03:22:59;;;;;;;1.20;1.10;;;;;;;21.64;18.52;101825.19;4517933;28;20871;-58
2023/04/04 03:25:10;;;;;;;1.38;1.00;;;;;;;21.58;18.31;101815.03;4536031;28;20047;-57
2023/04/04 03:27:21;;;;;;;1.10;1.00;;;;;;;21.64;18.18;101821.47;4533713;28;20037;-57
2023/04/04 03:29:31;;;;;;;1.13;1.02;;;;;;;21.62;17.99;101820.94;4535464;28;20216;-57
2023/04/04 03:31:42;;;;;;;1.13;1.02;;;;;;;21.64;18.41;101807.94;4517219;28;20162;-58
2023/04/04 03:33:53;;;;;;;1.13;0.90;;;;;;;21.50;18.36;101787.19;4535534;28;20041;-59
2023/04/04 03:36:10;;;;;;;1.00;0.90;;;;;;;21.61;18.19;101813.53;4532723;28;20586;-59
2023/04/04 03:38:20;;;;;;;0.90;0.80;;;;;;;21.61;18.21;101805.72;4533360;28;20609;-60
2023/04/04 03:40:31;;;;;;;0.88;0.82;;;;;;;21.62;18.15;101803.72;4532002;28;20164;-59
2023/04/04 03:42:42;;;;;;;1.48;1.10;;;;;;;21.60;18.33;101801.19;4532874;28;20469;-59
2023/04/04 03:44:54;;;;;;;1.13;1.00;;;;;;;21.61;18.36;101805.72;4532356;28;20036;-59
2023/04/04 03:47:13;;;;;;;1.20;1.10;;;;;;;21.58;18.53;101800.69;4516189;28;20041;-58
2023/04/04 03:49:24;;;;;;;1.00;0.90;;;;;;;21.62;18.57;101807.44;4531192;28;20033;-56
2023/04/04 03:51:34;;;;;;;1.20;1.00;;;;;;;21.63;18.63;101809.13;4535886;28;20045;-59
2023/04/04 03:53:47;;;;;;;0.98;0.93;;;;;;;21.62;18.33;101806.59;4521985;28;20120;-56
2023/04/04 03:55:58;;;;;;;1.10;1.00;;;;;;;21.58;18.21;101802.72;4535112;28;20921;-56
2023/04/04 03:58:09;;;;;;;1.20;1.00;;;;;;;21.59;18.45;101798.66;4530066;28;20029;-56
2023/04/04 04:00:19;;;;;;;1.05;0.95;;;;;;;21.60;18.23;101797.47;4534174;28;20040;-56
2023/04/04 04:02:30;;;;;;;1.02;0.80;;;;;;;21.61;18.41;101802.03;4534852;28;20033;-56
2023/04/04 04:04:40;;;;;;;1.15;1.00;;;;;;;21.60;18.19;101798.31;4534778;28;20812;-56
2023/04/04 04:06:50;;;;;;;1.27;1.10;;;;;;;21.58;18.39;101800.69;4533377;28;20121;-56
2023/04/04 04:09:02;;;;;;;1.30;1.10;;;;;;;21.61;18.41;101793.41;4531679;28;20076;-56
2023/04/04 04:11:12;;;;;;;1.10;1.00;;;;;;;21.57;18.33;101799.00;4499217;28;20037;-56
2023/04/04 04:13:23;;;;;;;1.20;1.00;;;;;;;21.59;18.34;101790.91;4532521;28;20047;-56
2023/04/04 04:15:34;;;;;;;1.40;1.10;;;;;;;21.59;18.54;101785.16;4535938;28;20646;-56
2023/04/04 04:17:48;;;;;;;1.25;1.05;;;;;;;21.59;18.48;101790.91;4508134;28;20034;-56
2023/04/04 04:19:59;;;;;;;1.35;1.23;;;;;;;21.58;18.64;101791.25;4525218;28;20811;-56
2023/04/04 04:22:16;;;;;;;1.52;1.42;;;;;;;21.57;18.29;101787.50;4520508;28;20780;-56
2023/04/04 04:24:27;;;;;;;1.10;1.00;;;;;;;21.55;18.67;101786.19;4530278;28;20561;-56
2023/04/04 04:26:38;;;;;;;1.20;1.10;;;;;;;21.58;18.66;101788.38;4533862;28;20033;-56
2023/04/04 04:28:49;;;;;;;1.00;1.00;;;;;;;21.57;18.57;101790.38;4516588;28;20560;-56
2023/04/04 04:31:08;;;;;;;0.80;0.80;;;;;;;21.54;18.46;101791.09;4533048;28;20037;-56
2023/04/04 04:33:28;;;;;;;1.10;1.00;;;;;;;21.55;18.51;101787.00;4532319;28;20041;-57
2023/04/04 04:35:42;;;;;;;1.00;0.90;;;;;;;21.56;18.71;101785.00;4514164;28;20034;-57
2023/04/04 04:37:54;;;;;;;1.10;0.90;;;;;;;21.54;18.69;101788.22;4514260;28;20161;-57
2023/04/04 04:40:05;;;;;;;1.10;1.00;;;;;;;21.54;18.37;101788.22;4533316;28;20033;-57
2023/04/04 04:42:24;;;;;;;1.20;1.10;;;;;;;21.53;18.32;101786.50;4530828;28;20179;-57
2023/04/04 04:44:39;;;;;;;1.05;0.95;;;;;;;21.52;18.23;101784.84;4514286;28;20057;-57
2023/04/04 04:46:50;;;;;;;1.17;1.08;;;;;;;21.40;18.39;101761.75;4524288;28;20032;-57
2023/04/04 04:49:02;;;;;;;0.95;0.85;;;;;;;21.52;18.18;101784.84;4534667;28;20079;-58
2023/04/04 04:51:14;;;;;;;1.60;1.05;;;;;;;21.52;18.68;101786.84;4513260;28;20072;-57
2023/04/04 04:53:29;;;;;;;1.23;1.10;;;;;;;21.55;18.23;101789.06;4496398;28;20037;-57
2023/04/04 04:55:41;;;;;;;1.10;1.00;;;;;;;21.57;18.36;101792.41;4530069;28;20025;-58
2023/04/04 04:57:53;;;;;;;1.10;1.00;;;;;;;21.54;18.20;101788.22;4516892;28;20711;-57
2023/04/04 05:00:08;;;;;;;1.20;1.10;;;;;;;21.54;18.15;101793.97;4513847;28;20029;-57
2023/04/04 05:02:19;;;;;;;1.17;1.00;;;;;;;21.54;18.24;101798.84;4516308;28;20037;-57
2023/04/04 05:04:31;;;;;;;1.30;1.17;;;;;;;21.54;17.75;101793.09;4529361;28;20045;-57
2023/04/04 05:06:46;;;;;;;1.30;1.20;;;;;;;21.52;17.91;101801.22;4511905;28;20928;-58
2023/04/04 05:08:57;;;;;;;1.35;1.20;;;;;;;21.49;18.06;101791.28;4530160;28;20079;-58
2023/04/04 05:11:12;;;;;;;1.25;1.15;;;;;;;21.51;18.32;101800.41;4529861;28;20037;-57
2023/04/04 05:13:23;;;;;;;1.10;1.00;;;;;;;21.45;18.25;101784.53;4529485;28;20029;-58
2023/04/04 05:15:33;;;;;;;1.65;1.38;;;;;;;21.52;18.12;101802.06;4513772;28;20065;-58
2023/04/04 05:17:45;;;;;;;1.48;1.17;;;;;;;21.51;17.91;101799.53;4515385;28;20494;-59
2023/04/04 05:19:56;;;;;;;1.20;1.10;;;;;;;21.51;18.37;101806.13;4516089;28;20335;-58
2023/04/04 05:22:07;;;;;;;1.75;1.27;;;;;;;21.47;17.89;101795.69;4514555;28;20033;-58
2023/04/04 05:24:26;;;;;;;1.60;1.30;;;;;;;21.52;17.91;101804.94;4533462;28;20111;-58
2023/04/04 05:26:37;;;;;;;1.33;1.20;;;;;;;21.51;17.77;101805.28;4515423;28;20061;-58
2023/04/04 05:28:48;;;;;;;1.20;1.10;;;;;;;21.49;18.24;101808.50;4530994;28;20036;-58
2023/04/04 05:30:59;;;;;;;1.20;1.10;;;;;;;21.50;17.84;101809.34;4514178;28;20121;-58
2023/04/04 05:33:12;;;;;;;1.02;0.93;;;;;;;21.45;18.27;101795.19;4512041;28;20042;-58
2023/04/04 05:35:28;;;;;;;1.13;1.00;;;;;;;21.46;18.00;101800.59;4518012;28;20112;-58
2023/04/04 05:37:40;;;;;;;1.38;0.90;;;;;;;21.48;18.43;101798.22;4512707;28;20033;-58
2023/04/04 05:39:54;;;;;;;1.02;0.90;;;;;;;21.49;18.11;101808.50;4506042;28;20317;-57
2023/04/04 05:42:05;;;;;;;1.10;1.00;;;;;;;21.50;18.31;101807.31;4519704;28;20037;-58
2023/04/04 05:44:19;;;;;;;1.15;1.00;;;;;;;21.51;18.33;101811.88;4505104;28;20038;-58
2023/04/04 05:46:30;;;;;;;1.05;0.90;;;;;;;21.47;18.32;101805.13;4532087;28;20036;-58
2023/04/04 05:48:41;;;;;;;0.95;0.82;;;;;;;21.52;18.68;101819.31;4529780;28;20928;-58
2023/04/04 05:50:51;;;;;;;1.30;1.00;;;;;;;21.50;18.53;101827.41;4528451;28;20465;-58
2023/04/04 05:53:07;;;;;;;0.90;0.85;;;;;;;21.50;18.89;101820.84;4530716;28;20626;-57
2023/04/04 05:55:18;;;;;;;1.23;1.02;;;;;;;21.51;19.22;101823.38;4517982;28;20038;-58
2023/04/04 05:57:28;;;;;;;1.00;0.90;;;;;;;21.48;19.30;101829.81;4516099;28;20178;-59
2023/04/04 05:59:41;;;;;;;1.00;0.90;;;;;;;21.49;19.00;101824.88;4534556;28;20127;-58
2023/04/04 06:01:54;;;;;;;1.08;1.00;;;;;;;21.51;19.16;101834.88;4519029;28;20029;-58
2023/04/04 06:04:05;;;;;;;1.23;0.98;;;;;;;21.50;19.09;101838.91;4529313;28;20482;-58
2023/04/04 06:06:16;;;;;;;1.00;0.90;;;;;;;21.51;18.99;101834.88;4530523;28;20078;-58
2023/04/04 06:08:27;;;;;;;1.05;0.90;;;;;;;21.50;19.08;101843.84;4514835;28;20037;-58
2023/04/04 06:10:37;;;;;;;1.10;1.00;;;;;;;21.46;19.22;101837.91;4530034;28;20033;-57
2023/04/04 06:12:47;;;;;;;1.42;1.17;;;;;;;21.46;19.58;101837.91;4532374;28;20500;-57
2023/04/04 06:14:58;;;;;;;1.00;0.90;;;;;;;21.47;19.45;101845.34;4506855;28;20025;-56
2023/04/04 06:17:09;;;;;;;1.30;1.10;;;;;;;21.48;19.89;101851.94;4530062;28;20041;-58
2023/04/04 06:19:19;;;;;;;0.80;0.80;;;;;;;21.49;19.76;101847.88;4516461;28;20576;-58
2023/04/04 06:21:30;;;;;;;1.35;1.00;;;;;;;21.49;19.97;101848.72;4532112;28;20485;-60
2023/04/04 06:23:40;;;;;;;1.20;0.90;;;;;;;21.47;19.84;101851.09;4512471;28;20605;-59
2023/04/04 06:25:52;;;;;;;1.20;0.90;;;;;;;21.39;20.01;101840.47;4520810;28;20100;-59
2023/04/04 06:28:04;;;;;;;1.00;0.90;;;;;;;21.47;20.06;101856.00;4522749;28;20072;-57
2023/04/04 06:30:17;;;;;;;1.38;1.20;;;;;;;21.45;20.19;101853.47;4531543;28;20573;-60
2023/04/04 06:32:30;;;;;;;1.40;1.20;;;;;;;21.43;20.21;101855.84;4514750;28;21027;-58
2023/04/04 06:34:41;;;;;;;1.20;0.98;;;;;;;21.40;20.29;101855.69;4509933;28;20659;-58
2023/04/04 06:36:54;;;;;;;1.00;0.90;;;;;;;21.39;20.21;101857.69;4534781;28;20039;-58
2023/04/04 06:39:07;;;;;;;1.48;0.90;;;;;;;21.37;20.33;101854.34;4533245;28;20037;-58
2023/04/04 06:41:17;;;;;;;1.23;1.00;;;;;;;21.44;20.42;101857.53;4534501;28;20038;-58
2023/04/04 06:43:30;;;;;;;0.82;0.77;;;;;;;21.39;20.60;101866.31;4532961;28;20033;-58
2023/04/04 06:45:40;;;;;;;1.10;0.80;;;;;;;21.42;20.37;101859.88;4534231;28;20037;-58
2023/04/04 06:47:52;;;;;;;0.77;0.77;;;;;;;21.44;20.15;101857.53;4532765;28;20025;-58
2023/04/04 06:50:03;;;;;;;0.70;0.70;;;;;;;21.43;19.87;101855.84;4532825;28;20540;-58
2023/04/04 06:52:14;;;;;;;1.83;1.02;;;;;;;21.43;19.89;101875.97;4531617;28;20034;-57
2023/04/04 06:54:25;;;;;;;1.00;0.90;;;;;;;21.45;20.14;101878.47;4499875;28;20019;-58
2023/04/04 06:56:36;;;;;;;1.00;0.80;;;;;;;21.43;20.28;101878.81;4519022;28;20112;-58
2023/04/04 06:58:47;;;;;;;1.08;0.80;;;;;;;21.46;20.16;101878.13;4532623;28;20033;-59
2023/04/04 07:00:58;;;;;;;0.80;0.80;;;;;;;21.45;20.09;101875.63;4533018;28;20045;-58
2023/04/04 07:03:09;;;;;;;0.77;0.77;;;;;;;21.40;20.40;101868.03;4535414;28;20037;-58
2023/04/04 07:05:19;;;;;;;1.23;0.90;;;;;;;21.40;20.56;101870.91;4533429;28;20498;-58
2023/04/04 07:07:30;;;;;;;0.70;0.70;;;;;;;21.45;20.59;101873.59;4534206;28;20036;-57
2023/04/04 07:09:41;;;;;;;1.40;0.98;;;;;;;21.46;20.43;101874.41;4535575;28;20342;-58
2023/04/04 07:11:51;;;;;;;1.50;0.75;;;;;;;21.51;20.57;101882.84;4533701;28;20025;-58
2023/04/04 07:14:02;;;;;;;1.10;0.77;;;;;;;21.46;20.14;101878.13;4522774;28;20398;-58
2023/04/04 07:16:12;;;;;;;0.85;0.80;;;;;;;21.50;20.34;101881.19;4533054;28;20025;-58
2023/04/04 07:18:23;;;;;;;1.02;0.90;;;;;;;21.50;20.17;101879.13;4534474;28;20123;-58
2023/04/04 07:20:33;;;;;;;1.00;0.90;;;;;;;21.51;20.17;101879.97;4533012;28;20040;-57
2023/04/04 07:22:44;;;;;;;0.82;0.80;;;;;;;21.51;20.49;101877.97;4532564;28;20044;-59
2023/04/04 07:24:55;;;;;;;1.08;0.98;;;;;;;21.50;20.43;101876.25;4531372;28;20029;-58
2023/04/04 07:27:05;;;;;;;1.10;1.00;;;;;;;21.52;20.60;101888.25;4532248;28;20069;-58
2023/04/04 07:29:16;;;;;;;0.80;0.77;;;;;;;21.48;21.13;101874.91;4532243;28;20469;-58
2023/04/04 07:31:27;;;;;;;0.80;0.80;;;;;;;21.48;20.73;101872.06;4532954;28;20526;-58
2023/04/04 07:33:37;;;;;;;0.68;0.68;;;;;;;21.47;20.67;101868.31;4533808;28;20434;-58
2023/04/04 07:35:48;;;;;;;0.93;0.80;;;;;;;21.49;20.27;101871.72;4532131;28;20421;-57
2023/04/04 07:37:58;;;;;;;0.70;0.70;;;;;;;21.41;20.48;101863.97;4530101;28;20021;-57
2023/04/04 07:40:09;;;;;;;1.30;0.70;;;;;;;21.49;20.11;101867.97;4530897;28;20084;-57
2023/04/04 07:42:22;;;;;;;1.05;0.70;;;;;;;21.52;20.83;101868.16;4531953;28;20024;-57
2023/04/04 07:44:32;;;;;;;1.13;0.80;;;;;;;21.50;20.22;101861.88;4532616;28;20045;-58
2023/04/04 07:46:43;;;;;;;0.85;0.80;;;;;;;21.48;20.39;101869.19;4532620;28;20029;-58
2023/04/04 07:48:53;;;;;;;0.70;0.70;;;;;;;21.54;20.70;101862.91;4534132;28;20041;-58
2023/04/04 07:51:04;;;;;;;1.02;0.70;;;;;;;21.55;20.40;101873.19;4517995;28;20127;-58
2023/04/04 07:53:14;;;;;;;0.93;0.68;;;;;;;21.53;20.82;101861.19;4516862;28;20632;-57
2023/04/04 07:55:25;;;;;;;1.02;0.73;;;;;;;21.56;20.31;101865.44;4531604;28;20041;-57
2023/04/04 07:57:38;;;;;;;0.73;0.70;;;;;;;21.56;20.58;101866.28;4534500;28;20937;-58
2023/04/04 07:59:49;;;;;;;0.70;0.70;;;;;;;21.58;19.94;101869.63;4532239;28;20037;-57
2023/04/04 08:02:00;;;;;;;0.70;0.63;;;;;;;21.58;20.59;101863.06;4521479;28;20561;-58
2023/04/04 08:04:10;;;;;;;1.08;0.60;;;;;;;21.51;20.29;101860.72;4534706;28;20052;-57
2023/04/04 08:06:21;;;;;;;1.08;0.82;;;;;;;21.48;19.93;101849.94;4514498;28;20125;-58
2023/04/04 08:08:31;;;;;;;0.55;0.52;;;;;;;21.48;20.41;101858.53;4530938;28;20028;-57
2023/04/04 08:10:45;;;;;;;1.13;0.70;;;;;;;21.47;20.58;101851.09;4531226;28;20035;-57
2023/04/04 08:12:56;;;;;;;0.73;0.70;;;;;;;21.46;19.59;101842.81;4532330;28;21107;-57
2023/04/04 08:15:07;;;;;;;0.85;0.65;;;;;;;21.49;19.90;101857.34;4534133;28;20055;-57
2023/04/04 08:17:17;;;;;;;1.20;0.60;;;;;;;21.51;19.33;101852.09;4533516;28;20076;-57
2023/04/04 08:19:28;;;;;;;0.98;0.88;;;;;;;21.53;19.75;101854.63;4531729;28;20130;-57
2023/04/04 08:21:38;;;;;;;0.68;0.63;;;;;;;21.39;19.79;101831.03;4515194;28;20600;-57
2023/04/04 08:23:49;;;;;;;0.65;0.60;;;;;;;21.52;19.84;101853.78;4533262;28;20041;-58
2023/04/04 08:25:59;;;;;;;0.70;0.50;;;;;;;21.53;19.20;101855.44;4529689;28;20057;-57
2023/04/04 08:28:10;;;;;;;0.80;0.73;;;;;;;21.53;19.45;101855.44;4530320;28;20087;-57
2023/04/04 08:30:20;;;;;;;0.60;0.60;;;;;;;21.53;19.59;101858.31;4530971;28;20041;-56
2023/04/04 08:32:31;;;;;;;0.80;0.60;;;;;;;21.46;19.01;101845.69;4532742;28;20041;-57
2023/04/04 08:34:41;;;;;;;0.60;0.60;;;;;;;21.52;18.91;101859.53;4531347;28;20083;-57
2023/04/04 08:36:52;;;;;;;0.38;0.38;;;;;;;21.61;18.30;101868.13;4533929;28;20021;-58
2023/04/04 08:39:02;;;;;;;0.77;0.60;;;;;;;21.59;18.42;101854.09;4532086;28;20029;-56
2023/04/04 08:41:14;;;;;;;0.85;0.52;;;;;;;21.56;18.09;101849.06;4530770;28;20103;-58
2023/04/04 08:43:26;;;;;;;0.82;0.52;;;;;;;21.60;18.00;101852.91;4531404;28;20723;-57
2023/04/04 08:45:40;;;;;;;0.65;0.65;;;;;;;21.69;17.97;101858.63;4532465;28;20044;-58
2023/04/04 08:47:51;;;;;;;0.85;0.60;;;;;;;21.72;17.91;101863.69;4531980;28;20044;-59
2023/04/04 08:50:06;;;;;;;0.85;0.60;;;;;;;21.73;17.91;101860.47;4520197;28;20037;-59
2023/04/04 08:52:19;;;;;;;0.57;0.50;;;;;;;21.73;18.09;101860.47;4532441;28;20636;-59
2023/04/04 08:54:33;;;;;;;0.70;0.50;;;;;;;21.76;18.29;101859.81;4532473;28;20045;-58
2023/04/04 08:56:43;;;;;;;0.60;0.60;;;;;;;21.75;18.46;101863.00;4529942;28;20598;-59
2023/04/04 08:58:54;;;;;;;0.50;0.50;;;;;;;21.75;17.86;101860.13;4533334;28;20055;-58
2023/04/04 09:01:05;;;;;;;0.75;0.50;;;;;;;21.73;18.01;101863.34;4532556;28;20039;-58
2023/04/04 09:03:31;;;;;;;1.08;0.60;;;;;;;21.73;17.51;101869.09;4531292;28;20181;-57
2023/04/04 09:05:43;;;;;;;0.68;0.55;;;;;;;21.65;17.44;101851.88;4514025;28;20132;-58
2023/04/04 09:07:55;;;;;;;0.40;0.40;;;;;;;21.69;17.72;101856.56;4531696;28;20075;-58
2023/04/04 09:10:09;;;;;;;0.75;0.60;;;;;;;21.74;17.50;101856.38;4515233;28;20033;-59
2023/04/04 09:12:21;;;;;;;1.00;0.60;;;;;;;21.69;17.73;101847.13;4532041;28;20074;-58
2023/04/04 09:14:33;;;;;;;0.80;0.68;;;;;;;21.75;17.50;101863.88;4534639;28;20123;-58
2023/04/04 09:16:43;;;;;;;0.60;0.60;;;;;;;21.75;17.55;101855.25;4531868;28;20648;-60
2023/04/04 09:18:54;;;;;;;0.85;0.60;;;;;;;21.77;17.86;101855.72;4531189;28;20055;-58
2023/04/04 09:21:12;;;;;;;0.68;0.52;;;;;;;21.79;17.82;101858.25;4528731;28;20063;-58
2023/04/04 09:23:23;;;;;;;0.95;0.80;;;;;;;21.75;18.10;101848.63;4529508;28;20033;-58
2023/04/04 09:25:34;;;;;;;0.70;0.70;;;;;;;21.74;17.51;101856.38;4530997;28;20041;-58
2023/04/04 09:27:48;;;;;;;0.70;0.70;;;;;;;21.74;17.64;101846.94;4531748;28;21052;-58
2023/04/04 09:30:01;;;;;;;1.15;0.80;;;;;;;21.78;17.91;101850.84;4532893;28;20097;-59
2023/04/04 09:32:16;;;;;;;0.77;0.60;;;;;;;21.74;17.94;101850.63;4520154;28;20033;-58
2023/04/04 09:34:28;;;;;;;0.60;0.60;;;;;;;21.80;17.83;101855.03;4531244;28;20042;-58
2023/04/04 09:36:38;;;;;;;0.68;0.60;;;;;;;21.81;18.20;101850.13;4533082;28;20087;-58
2023/04/04 09:38:52;;;;;;;0.60;0.60;;;;;;;21.78;18.38;101845.94;4528840;28;20034;-60
2023/04/04 09:41:06;;;;;;;0.68;0.60;;;;;;;21.84;18.28;101849.44;4504827;28;20036;-59
2023/04/04 09:43:18;;;;;;;1.10;0.70;;;;;;;21.82;18.13;101843.19;4530199;28;20101;-59
2023/04/04 09:45:30;;;;;;;0.70;0.70;;;;;;;21.82;18.38;101841.16;4532057;28;20044;-59
2023/04/04 09:47:41;;;;;;;1.10;0.63;;;;;;;21.75;18.15;101829.38;4531261;28;20063;-59
2023/04/04 09:49:52;;;;;;;1.08;0.70;;;;;;;21.81;17.70;101839.50;4530598;28;20029;-59
2023/04/04 09:52:03;;;;;;;1.20;0.70;;;;;;;21.77;17.75;101831.91;4532820;28;20095;-58
2023/04/04 09:54:21;;;;;;;0.93;0.60;;;;;;;21.83;17.68;101842.88;4531967;28;20037;-62
2023/04/04 09:56:33;;;;;;;0.70;0.70;;;;;;;21.84;17.45;101833.06;4530898;28;20076;-59
2023/04/04 09:58:47;;;;;;;1.02;0.70;;;;;;;21.84;17.89;101827.31;4524705;28;20552;-59
2023/04/04 10:01:00;;;;;;;1.23;0.85;;;;;;;21.83;17.93;101830.53;4514045;28;20034;-59
2023/04/04 10:03:16;;;;;;;1.00;0.70;;;;;;;21.85;18.28;101828.97;4533569;28;20140;-59
2023/04/04 10:05:26;;;;;;;0.90;0.60;;;;;;;21.85;17.59;101831.84;4539316;28;20040;-59
2023/04/04 10:07:39;;;;;;;0.60;0.60;;;;;;;21.86;18.19;101829.84;4527275;28;20560;-58
2023/04/04 10:09:51;;;;;;;0.73;0.70;;;;;;;21.78;17.61;101822.09;4517662;28;20041;-58
2023/04/04 10:12:09;;;;;;;0.60;0.60;;;;;;;21.87;17.67;101834.38;4534677;28;20266;-58